Time;durP1;ratioP1;P1;durP2;ratioP2;P2;SDS_P1;SDS_P2;PMS_P1;PMS_P2;Temp;Humidity;BMP_temperature;BMP_pressure;BME280_temperature;BME280_humidity;BME280_pressure;Samples;Min_cycle;Max_cycle;Signal;HPM_P1;HPM_P2
2022/08/01 00:04:10;;;;;;;4.20;1.90;;;;;;;22.54;43.59;96198.78;10289852;28;97027;-66
2022/08/01 00:09:14;;;;;;;2.50;1.80;;;;;;;22.37;44.09;96203.88;10286243;28;98077;-66
2022/08/01 00:14:26;;;;;;;2.80;1.75;;;;;;;22.10;44.77;96202.56;10273818;28;98347;-66
2022/08/01 00:19:35;;;;;;;3.15;1.80;;;;;;;21.97;45.67;96199.03;10281176;28;98780;-66
2022/08/01 00:24:39;;;;;;;4.90;1.90;;;;;;;21.84;45.94;96205.25;10276083;28;98659;-66
2022/08/01 00:29:42;;;;;;;2.13;1.45;;;;;;;21.78;46.33;96206.16;10284988;28;97856;-66
2022/08/01 00:35:05;;;;;;;2.28;1.27;;;;;;;21.60;46.39;96208.75;10277580;28;98499;-66
2022/08/01 00:40:10;;;;;;;2.47;1.70;;;;;;;21.57;45.95;96207.34;10280947;28;98564;-67
2022/08/01 00:45:13;;;;;;;3.70;2.00;;;;;;;21.51;46.05;96206.34;10279672;28;97744;-66
2022/08/01 00:50:16;;;;;;;2.30;1.60;;;;;;;21.49;46.31;96203.09;10297540;28;97888;-66
2022/08/01 00:55:20;;;;;;;2.80;1.55;;;;;;;21.36;46.67;96203.19;10278360;28;96926;-66
2022/08/01 01:00:23;;;;;;;2.83;1.70;;;;;;;21.31;46.33;96209.19;10284682;28;97794;-66
2022/08/01 01:05:29;;;;;;;4.15;1.85;;;;;;;21.26;47.05;96208.22;10279987;28;97152;-67
2022/08/01 01:10:47;;;;;;;4.97;1.63;;;;;;;21.08;46.99;96204.41;10283647;28;98776;-66
2022/08/01 01:15:56;;;;;;;3.25;1.40;;;;;;;21.05;46.81;96210.19;10279687;28;97078;-66
2022/08/01 01:21:14;;;;;;;2.28;1.73;;;;;;;20.90;47.91;96205.16;10295458;28;96910;-66
2022/08/01 01:26:33;;;;;;;2.45;1.48;;;;;;;20.82;47.55;96202.75;10283726;28;97075;-66
2022/08/01 01:31:45;;;;;;;2.78;1.50;;;;;;;20.66;48.04;96206.69;10280704;28;97099;-66
2022/08/01 01:36:49;;;;;;;2.75;1.80;;;;;;;20.57;48.43;96210.63;10275506;28;98415;-70
2022/08/01 01:41:54;;;;;;;4.43;1.73;;;;;;;20.46;48.59;96204.16;10277557;28;96989;-66
2022/08/01 01:47:00;;;;;;;2.42;1.60;;;;;;;20.28;49.33;96215.41;10271248;28;98455;-66
2022/08/01 01:52:05;;;;;;;4.07;2.00;;;;;;;20.27;50.26;96219.13;10274952;28;97543;-67
2022/08/01 01:57:12;;;;;;;3.63;1.88;;;;;;;20.14;49.20;96221.78;10286556;28;97045;-68
2022/08/01 02:02:17;;;;;;;1.55;1.30;;;;;;;20.06;49.93;96214.06;10274849;28;97574;-70
2022/08/01 02:07:23;;;;;;;3.05;1.88;;;;;;;20.03;49.92;96215.31;10286838;28;97434;-67
2022/08/01 02:12:26;;;;;;;4.40;1.80;;;;;;;19.69;50.61;96211.03;10284013;28;96873;-66
2022/08/01 02:17:32;;;;;;;2.65;1.75;;;;;;;19.70;50.79;96225.94;10278990;28;97741;-66
2022/08/01 02:22:40;;;;;;;2.15;1.90;;;;;;;19.69;51.28;96219.00;10283403;28;98899;-68
2022/08/01 02:27:47;;;;;;;3.67;1.90;;;;;;;19.67;51.70;96210.44;10292671;28;97610;-66
2022/08/01 02:32:56;;;;;;;2.40;1.95;;;;;;;19.64;51.66;96216.94;10285582;28;97688;-66
2022/08/01 02:38:00;;;;;;;2.22;1.50;;;;;;;19.51;51.04;96217.78;10278981;28;97763;-67
2022/08/01 02:43:06;;;;;;;2.53;1.50;;;;;;;19.43;51.44;96221.44;10288544;28;98291;-68
2022/08/01 02:48:14;;;;;;;2.75;1.80;;;;;;;19.44;51.10;96228.38;10279462;28;97332;-66
2022/08/01 02:53:20;;;;;;;2.88;1.55;;;;;;;19.32;50.90;96223.91;10281427;28;97461;-66
2022/08/01 02:58:24;;;;;;;2.22;1.50;;;;;;;19.26;50.96;96214.91;10283765;28;98456;-68
2022/08/01 03:03:35;;;;;;;2.10;1.50;;;;;;;19.18;51.77;96208.00;10283569;28;96866;-67
2022/08/01 03:08:39;;;;;;;2.08;1.17;;;;;;;19.12;50.88;96210.63;10271693;28;97907;-66
2022/08/01 03:13:45;;;;;;;2.90;1.58;;;;;;;19.03;51.75;96215.31;10275518;28;97524;-67
2022/08/01 03:18:51;;;;;;;2.42;1.60;;;;;;;18.84;52.15;96206.28;10280532;28;99187;-66
2022/08/01 03:23:56;;;;;;;3.05;1.77;;;;;;;18.78;51.62;96202.59;10286691;28;98350;-66
2022/08/01 03:29:06;;;;;;;1.60;1.50;;;;;;;18.87;52.08;96206.72;10286975;28;99232;-66
2022/08/01 03:34:10;;;;;;;2.88;1.77;;;;;;;18.73;52.71;96199.75;10284452;28;97290;-67
2022/08/01 03:39:14;;;;;;;;;;;;;;;18.70;52.19;96205.44;10280069;28;96864;-66
2022/08/01 03:44:23;;;;;;;2.72;1.30;;;;;;;18.62;50.79;96205.59;10278993;28;98491;-66
2022/08/01 03:49:32;;;;;;;1.50;1.27;;;;;;;18.63;50.35;96209.91;10274478;28;98629;-67
2022/08/01 03:54:38;;;;;;;3.10;1.35;;;;;;;18.65;50.62;96214.00;10277390;28;98620;-66
2022/08/01 03:59:42;;;;;;;2.47;1.30;;;;;;;18.60;50.78;96216.41;10280900;28;98368;-66
2022/08/01 04:04:46;;;;;;;1.60;1.50;;;;;;;18.52;51.36;96207.84;10279310;28;98779;-70
2022/08/01 04:09:49;;;;;;;2.33;1.40;;;;;;;18.26;51.86;96209.34;10279966;28;99032;-67
2022/08/01 04:14:52;;;;;;;1.70;1.48;;;;;;;18.18;52.14;96220.09;10280520;28;99479;-65
2022/08/01 04:19:56;;;;;;;2.28;1.30;;;;;;;18.04;52.64;96212.09;10283853;28;98250;-67
2022/08/01 04:25:01;;;;;;;4.07;1.60;;;;;;;18.08;52.64;96212.50;10275036;28;98108;-67
2022/08/01 04:30:06;;;;;;;2.53;1.38;;;;;;;18.10;52.43;96213.97;10278301;28;98896;-72
2022/08/01 04:35:16;;;;;;;3.58;1.48;;;;;;;18.10;53.21;96218.44;10279579;28;98477;-66
2022/08/01 04:40:40;;;;;;;4.03;1.52;;;;;;;18.13;52.45;96221.50;10277890;28;98507;-66
2022/08/01 04:45:44;;;;;;;4.23;1.70;;;;;;;18.10;52.83;96219.25;10272317;28;96899;-67
2022/08/01 04:50:48;;;;;;;6.68;1.50;;;;;;;18.04;53.31;96232.41;10283334;28;97919;-66
2022/08/01 04:55:51;;;;;;;3.90;1.60;;;;;;;17.98;53.62;96223.44;10273413;28;99297;-65
2022/08/01 05:00:54;;;;;;;2.67;1.35;;;;;;;18.03;53.04;96231.63;10289308;28;97607;-66
2022/08/01 05:05:58;;;;;;;2.30;1.60;;;;;;;18.17;52.91;96226.38;10295157;28;97346;-66
2022/08/01 05:11:02;;;;;;;1.88;1.30;;;;;;;18.29;51.70;96227.44;10300963;28;96769;-66
2022/08/01 05:16:07;;;;;;;3.78;1.55;;;;;;;18.40;51.90;96228.75;10290868;28;96903;-67
2022/08/01 05:21:11;;;;;;;3.83;1.50;;;;;;;18.53;50.84;96228.78;10307745;28;97045;-67
2022/08/01 05:26:14;;;;;;;2.40;1.63;;;;;;;18.59;51.60;96235.94;10295809;28;96952;-67
2022/08/01 05:31:17;;;;;;;2.38;1.80;;;;;;;18.68;51.78;96233.94;10281831;28;97496;-67
2022/08/01 05:36:21;;;;;;;2.17;1.98;;;;;;;18.70;52.38;96239.84;10273237;28;96911;-67
2022/08/01 05:41:24;;;;;;;2.45;1.95;;;;;;;18.83;53.05;96241.72;10279459;28;97738;-71
2022/08/01 05:46:27;;;;;;;4.07;2.25;;;;;;;18.96;52.66;96243.59;10263128;28;98633;-66
2022/08/01 05:51:31;;;;;;;3.20;2.03;;;;;;;19.10;53.27;96241.78;10276897;28;98057;-69
2022/08/01 05:56:34;;;;;;;3.85;1.95;;;;;;;19.20;52.28;96237.72;10285922;28;97730;-69
2022/08/01 06:01:37;;;;;;;4.68;2.10;;;;;;;19.33;52.78;96236.13;10273400;28;98929;-66
2022/08/01 06:06:42;;;;;;;3.90;1.95;;;;;;;19.49;53.16;96256.91;10265880;28;98971;-67
2022/08/01 06:11:45;;;;;;;5.60;2.20;;;;;;;19.65;53.21;96244.28;10295292;28;96960;-67
2022/08/01 06:16:47;;;;;;;3.70;1.90;;;;;;;19.78;52.49;96246.91;10278540;28;97765;-67
2022/08/01 06:21:52;;;;;;;4.30;1.80;;;;;;;19.94;51.86;96241.22;10286422;28;97732;-67
2022/08/01 06:26:54;;;;;;;3.15;2.00;;;;;;;20.12;51.61;96245.88;10268053;28;97758;-64
2022/08/01 06:31:57;;;;;;;3.03;1.92;;;;;;;20.22;50.66;96247.25;10271572;28;96943;-64
2022/08/01 06:37:02;;;;;;;2.10;1.60;;;;;;;20.36;51.28;96251.53;10279129;28;96961;-65
2022/08/01 06:42:10;;;;;;;2.10;1.90;;;;;;;20.48;50.92;96252.50;10289904;28;96737;-64
2022/08/01 06:47:13;;;;;;;3.38;1.90;;;;;;;20.61;50.72;96259.59;10286343;28;96886;-65
2022/08/01 06:52:17;;;;;;;2.50;1.92;;;;;;;20.72;50.42;96255.44;10278476;28;97302;-64
2022/08/01 06:57:20;;;;;;;2.22;1.80;;;;;;;20.84;50.11;96250.31;10289366;28;97118;-66
2022/08/01 07:02:23;;;;;;;3.92;2.00;;;;;;;21.02;49.92;96247.78;10295452;28;96944;-64
2022/08/01 07:07:27;;;;;;;2.20;1.88;;;;;;;21.19;49.29;96247.25;10291326;28;96764;-65
2022/08/01 07:12:30;;;;;;;;;;;;;;;21.38;49.34;96243.69;10295196;28;96811;-64
2022/08/01 07:17:33;;;;;;;3.22;1.85;;;;;;;21.54;48.73;96246.84;10294635;28;97570;-64
2022/08/01 07:22:37;;;;;;;3.00;1.80;;;;;;;21.68;48.20;96248.38;10295541;28;96898;-65
2022/08/01 07:27:40;;;;;;;;;;;;;;;21.87;48.10;96247.38;10294948;28;96836;-64
2022/08/01 07:32:43;;;;;;;6.85;5.40;;;;;;;22.09;47.81;96246.16;10293646;28;97096;-64
2022/08/01 07:37:47;;;;;;;2.83;2.15;;;;;;;22.19;46.99;96239.28;10294578;28;96767;-63
2022/08/01 07:42:51;;;;;;;2.10;1.70;;;;;;;22.35;47.00;96237.06;10294431;28;97006;-65
2022/08/01 07:47:54;;;;;;;2.25;1.95;;;;;;;22.52;46.41;96237.31;10294011;28;98039;-64
2022/08/01 07:52:58;;;;;;;2.83;1.60;;;;;;;22.55;45.55;96227.03;10292619;28;98065;-65
2022/08/01 07:58:01;;;;;;;2.92;1.67;;;;;;;22.79;44.81;96232.47;10289645;28;96750;-64
2022/08/01 08:03:04;;;;;;;1.88;1.60;;;;;;;23.02;44.42;96237.09;10285436;28;96853;-64
2022/08/01 08:08:10;;;;;;;1.67;1.40;;;;;;;23.16;43.86;96232.38;10293255;28;96842;-64
2022/08/01 08:13:13;;;;;;;1.60;1.30;;;;;;;23.29;43.78;96236.72;10293089;28;96847;-65
2022/08/01 08:18:16;;;;;;;2.03;1.60;;;;;;;23.36;43.92;96232.94;10296429;28;97032;-66
2022/08/01 08:28:46;;;;;;;2.97;1.77;;;;;;;23.54;43.08;96228.56;10298897;28;97278;-65
2022/08/01 08:33:49;;;;;;;2.88;1.63;;;;;;;23.77;42.97;96229.59;10299724;28;97177;-65
2022/08/01 08:38:53;;;;;;;3.00;1.58;;;;;;;23.98;42.68;96220.22;10296489;28;96812;-65
2022/08/01 08:43:57;;;;;;;2.28;1.70;;;;;;;24.09;42.37;96219.44;10295691;28;98478;-65
2022/08/01 08:49:00;;;;;;;;;;;;;;;24.24;42.53;96210.94;10297793;28;96858;-64
2022/08/01 08:54:06;;;;;;;4.28;1.70;;;;;;;24.43;42.22;96209.72;10291774;28;96808;-65
2022/08/01 08:59:12;;;;;;;4.07;1.70;;;;;;;24.58;42.01;96216.44;10292685;28;97246;-65
2022/08/01 09:04:15;;;;;;;1.90;1.60;;;;;;;24.62;41.67;96205.00;10294797;28;96831;-65
2022/08/01 09:09:20;;;;;;;2.83;1.60;;;;;;;24.68;41.69;96196.06;10294948;28;96827;-65
2022/08/01 09:14:25;;;;;;;3.83;1.65;;;;;;;24.86;41.28;96203.09;10302137;28;96863;-65
2022/08/01 09:19:36;;;;;;;2.15;1.63;;;;;;;25.01;40.67;96196.44;10301592;28;96793;-65
2022/08/01 09:24:58;;;;;;;4.00;1.60;;;;;;;25.08;40.17;96198.91;10295797;28;96903;-65
2022/08/01 09:30:12;;;;;;;2.47;1.60;;;;;;;25.18;40.25;96194.59;10297999;28;96872;-65
2022/08/01 09:35:26;;;;;;;4.30;1.50;;;;;;;25.30;40.18;96196.38;10298888;28;96930;-65
2022/08/01 09:40:46;;;;;;;;;;;;;;;25.48;40.25;96197.97;10297891;28;96874;-65
2022/08/01 09:45:51;;;;;;;2.10;1.40;;;;;;;25.61;39.48;96200.38;10292834;28;98013;-65
2022/08/01 09:50:55;;;;;;;1.55;1.45;;;;;;;25.80;38.82;96195.56;10305431;28;96785;-64
2022/08/01 09:56:12;;;;;;;2.95;1.42;;;;;;;25.95;38.32;96187.75;10290278;28;96904;-65
2022/08/01 10:01:14;;;;;;;2.03;1.60;;;;;;;25.95;37.91;96176.25;10290411;28;97212;-65
2022/08/01 10:06:20;;;;;;;3.50;1.30;;;;;;;26.27;37.39;96181.78;10289013;28;97044;-65
2022/08/01 10:11:31;;;;;;;1.30;1.20;;;;;;;26.33;36.31;96178.09;10290401;28;96854;-65
2022/08/01 10:16:40;;;;;;;2.85;1.67;;;;;;;26.39;36.43;96170.94;10290493;28;97129;-64
2022/08/01 10:21:49;;;;;;;2.08;1.30;;;;;;;26.52;36.28;96151.00;10289647;28;96835;-65
2022/08/01 10:27:04;;;;;;;2.08;1.20;;;;;;;26.58;35.35;96158.03;10289891;28;96698;-65
2022/08/01 10:32:10;;;;;;;1.35;1.20;;;;;;;26.71;35.10;96146.91;10289769;28;96918;-65
2022/08/01 10:37:15;;;;;;;1.92;1.48;;;;;;;26.96;34.59;96153.63;10290223;28;96942;-65
2022/08/01 10:42:20;;;;;;;1.85;1.00;;;;;;;27.04;34.08;96150.47;10296135;28;97880;-65
2022/08/01 10:47:32;;;;;;;2.60;1.30;;;;;;;27.16;33.50;96128.88;10296332;28;96761;-65
2022/08/01 10:53:07;;;;;;;1.40;1.20;;;;;;;27.31;33.28;96128.16;10294649;28;96929;-65
2022/08/01 10:58:28;;;;;;;1.67;1.10;;;;;;;27.41;33.55;96117.50;10296050;28;97445;-65
2022/08/01 11:03:35;;;;;;;1.85;1.13;;;;;;;27.78;32.97;96108.63;10294721;28;97734;-64
2022/08/01 11:08:59;;;;;;;2.53;1.08;;;;;;;28.07;32.72;96107.44;10297543;28;97796;-65
2022/08/01 11:14:09;;;;;;;1.35;1.15;;;;;;;28.11;32.23;96087.84;10295840;28;96818;-65
2022/08/01 11:19:12;;;;;;;1.00;0.90;;;;;;;28.22;32.04;96089.50;10295229;28;97489;-65
2022/08/01 11:24:15;;;;;;;1.40;1.10;;;;;;;28.41;31.48;96086.34;10294380;28;97015;-65
2022/08/01 11:29:19;;;;;;;2.28;0.93;;;;;;;28.55;30.95;96076.72;10294874;28;96858;-65
2022/08/01 11:34:53;;;;;;;2.42;1.00;;;;;;;28.68;30.98;96071.91;10293790;28;96932;-65
2022/08/01 11:40:15;;;;;;;2.90;1.00;;;;;;;28.91;30.15;96068.69;10290744;28;96818;-66
2022/08/01 11:45:20;;;;;;;1.77;1.10;;;;;;;28.85;30.56;96048.25;10283749;28;97758;-65
2022/08/01 11:50:34;;;;;;;2.15;1.23;;;;;;;28.90;29.88;96050.13;10293369;28;96772;-65
2022/08/01 11:55:37;;;;;;;1.25;1.00;;;;;;;29.18;29.75;96044.22;10285620;28;96835;-65
2022/08/01 12:00:41;;;;;;;1.50;1.10;;;;;;;29.39;29.40;96035.31;10287716;28;96990;-65
2022/08/01 12:05:48;;;;;;;1.05;0.82;;;;;;;29.50;28.82;96034.19;10285046;28;97243;-65
2022/08/01 12:10:51;;;;;;;1.50;1.00;;;;;;;29.66;28.95;96030.41;10290493;28;97029;-65
2022/08/01 12:16:10;;;;;;;1.37;1.00;;;;;;;29.84;28.00;96031.69;10292007;28;96949;-66
2022/08/01 12:21:13;;;;;;;3.47;0.80;;;;;;;29.97;27.96;96030.28;10293833;28;97522;-65
2022/08/01 12:26:15;;;;;;;4.17;1.83;;;;;;;30.05;27.85;96032.41;10292860;28;96890;-65
2022/08/01 12:31:35;;;;;;;3.00;1.90;;;;;;;30.09;27.66;96033.44;10290026;28;97230;-65
2022/08/01 12:36:38;;;;;;;1.20;1.10;;;;;;;30.19;27.31;96021.03;10291973;28;96925;-64
2022/08/01 12:41:44;;;;;;;1.27;0.93;;;;;;;30.58;27.35;96029.16;10292026;28;96747;-65
2022/08/01 12:46:48;;;;;;;1.10;1.00;;;;;;;31.07;26.69;96027.44;10292015;28;96887;-67
2022/08/01 12:51:52;;;;;;;2.28;1.23;;;;;;;31.10;26.44;96026.84;10291541;28;96812;-65
2022/08/01 12:56:59;;;;;;;2.97;1.67;;;;;;;31.10;26.00;96029.53;10290437;28;96903;-65
2022/08/01 13:02:10;;;;;;;0.88;0.80;;;;;;;31.13;25.81;96020.88;10291810;28;96893;-66
2022/08/01 13:07:13;;;;;;;1.08;0.80;;;;;;;31.03;25.78;96019.09;10290242;28;97132;-66
2022/08/01 13:12:16;;;;;;;0.75;0.70;;;;;;;30.86;25.31;96016.03;10291673;28;98686;-66
2022/08/01 13:17:32;;;;;;;1.00;0.80;;;;;;;30.61;25.26;96006.22;10291795;28;96965;-65
2022/08/01 13:22:35;;;;;;;0.88;0.65;;;;;;;30.36;24.81;96018.78;10291791;28;98607;-65
2022/08/01 13:27:39;;;;;;;1.17;0.65;;;;;;;30.45;25.43;96017.09;10290752;28;97060;-65
2022/08/01 13:33:00;;;;;;;1.00;0.90;;;;;;;30.40;25.73;96011.75;10290832;28;96851;-65
2022/08/01 13:38:03;;;;;;;0.98;0.80;;;;;;;30.53;25.31;96006.81;10284228;28;96744;-65
2022/08/01 13:43:06;;;;;;;0.93;0.90;;;;;;;30.60;25.16;96005.41;10291358;28;96786;-65
2022/08/01 13:48:10;;;;;;;1.65;0.90;;;;;;;30.65;24.98;96002.69;10290198;28;97245;-65
2022/08/01 13:53:20;;;;;;;0.82;0.82;;;;;;;30.63;25.25;95993.25;10289225;28;96748;-66
2022/08/01 13:58:23;;;;;;;1.35;0.90;;;;;;;30.62;25.30;96007.81;10288407;28;96818;-65
2022/08/01 14:03:28;;;;;;;;;;;;;;;30.51;25.48;96003.59;10289814;28;97595;-65
2022/08/01 14:08:35;;;;;;;1.75;0.70;;;;;;;30.42;25.39;95993.41;10302001;28;96962;-65
2022/08/01 14:13:40;;;;;;;;;;;;;;;30.57;25.38;95994.38;10295019;28;97662;-65
2022/08/01 14:18:50;;;;;;;1.42;0.70;;;;;;;30.79;25.02;95997.47;10289918;28;96820;-66
2022/08/01 14:23:52;;;;;;;0.88;0.80;;;;;;;31.37;24.38;95990.47;10290051;28;99066;-65
2022/08/01 14:28:55;;;;;;;1.00;0.80;;;;;;;32.27;23.28;95980.69;10289772;28;96846;-65
2022/08/01 14:33:59;;;;;;;;;;;;;;;33.38;23.42;95986.44;10283043;28;97061;-65
2022/08/01 14:39:02;;;;;;;0.88;0.70;;;;;;;34.13;21.94;95995.22;10295132;28;96784;-66
2022/08/01 14:44:06;;;;;;;1.38;0.73;;;;;;;34.65;21.16;95996.81;10300942;28;96899;-65
2022/08/01 14:49:10;;;;;;;1.00;0.70;;;;;;;34.80;21.10;95995.63;10286178;28;96775;-66
2022/08/01 14:54:13;;;;;;;1.75;0.80;;;;;;;35.18;20.96;95992.50;10288952;28;96798;-66
2022/08/01 14:59:16;;;;;;;1.30;0.68;;;;;;;35.70;20.13;95996.28;10288623;28;96786;-66
2022/08/01 15:04:25;;;;;;;1.40;0.60;;;;;;;35.11;20.94;95982.09;10285512;28;96813;-66
2022/08/01 15:09:28;;;;;;;1.88;0.90;;;;;;;34.58;21.07;95986.38;10286973;28;96813;-66
2022/08/01 15:14:50;;;;;;;0.88;0.85;;;;;;;34.36;21.48;95998.00;10288491;28;96870;-65
2022/08/01 15:19:55;;;;;;;0.77;0.75;;;;;;;34.10;21.95;95990.41;10291990;28;97287;-66
2022/08/01 15:25:00;;;;;;;1.25;0.73;;;;;;;33.76;22.45;96002.53;10294989;28;96854;-66
2022/08/01 15:30:04;;;;;;;2.03;0.75;;;;;;;33.65;22.11;96001.13;10294535;28;96870;-66
2022/08/01 15:35:10;;;;;;;0.93;0.70;;;;;;;33.46;22.15;95999.28;10294642;28;96802;-65
2022/08/01 15:40:13;;;;;;;1.83;0.70;;;;;;;34.11;22.01;96002.06;10288469;28;97745;-66
2022/08/01 15:45:18;;;;;;;3.45;0.90;;;;;;;34.42;22.05;96004.94;10294123;28;98180;-66
2022/08/01 15:50:43;;;;;;;2.15;0.88;;;;;;;33.56;22.31;96000.19;10293619;28;96737;-66
2022/08/01 15:55:45;;;;;;;1.75;0.80;;;;;;;33.95;22.19;95993.44;10293103;28;96776;-67
2022/08/01 16:06:01;;;;;;;2.03;1.02;;;;;;;32.26;24.14;95979.06;10438872;27;98558;-62
2022/08/01 16:11:04;;;;;;;3.13;1.25;;;;;;;30.99;25.63;96011.84;10402402;28;97146;-63
2022/08/01 16:16:07;;;;;;;;;;;;;;;30.52;26.10;95994.44;10403446;27;97131;-64
2022/08/01 16:21:11;;;;;;;;;;;;;;;30.27;26.43;95999.72;10406453;27;99225;-64
2022/08/01 16:26:14;;;;;;;1.52;1.13;;;;;;;30.21;26.90;95997.31;10401340;27;98313;-64
2022/08/01 16:31:30;;;;;;;1.23;0.98;;;;;;;30.22;27.13;95996.25;10401445;28;98620;-64
2022/08/01 16:36:55;;;;;;;1.45;0.90;;;;;;;30.76;27.01;95981.06;10400852;27;96844;-64
2022/08/01 16:41:58;;;;;;;1.33;0.88;;;;;;;30.76;27.19;95981.84;10401574;28;97918;-66
2022/08/01 16:47:03;;;;;;;2.00;1.27;;;;;;;30.11;27.67;95985.50;10404386;27;97396;-63
2022/08/01 16:52:08;;;;;;;3.20;1.08;;;;;;;29.38;28.62;95971.81;10409479;27;96759;-67
2022/08/01 16:57:11;;;;;;;2.05;1.30;;;;;;;28.98;29.19;95967.06;10408766;27;98311;-62
2022/08/01 17:02:15;;;;;;;1.35;1.10;;;;;;;28.77;29.49;95971.63;10409694;28;96869;-62
2022/08/01 17:07:19;;;;;;;1.70;1.20;;;;;;;28.55;30.17;95992.59;10401039;27;97126;-63
2022/08/01 17:12:22;;;;;;;2.38;1.33;;;;;;;28.44;30.54;95983.72;10406695;28;99083;-63
2022/08/01 17:17:25;;;;;;;1.73;1.20;;;;;;;28.37;30.63;95999.31;10376439;28;96936;-64
2022/08/01 17:22:29;;;;;;;2.17;1.30;;;;;;;28.23;31.24;95985.56;10376093;28;98544;-64
2022/08/01 17:27:32;;;;;;;1.75;1.33;;;;;;;28.09;31.59;96003.25;10381362;28;98118;-62
2022/08/01 17:32:35;;;;;;;1.70;1.30;;;;;;;28.00;31.27;96000.28;10378675;28;97892;-63
2022/08/01 17:37:39;;;;;;;1.30;1.17;;;;;;;27.87;31.88;95993.50;10377130;28;97185;-63
2022/08/01 17:42:42;;;;;;;3.00;1.30;;;;;;;27.75;32.17;96003.69;10382068;28;98622;-63
2022/08/01 17:47:45;;;;;;;1.37;1.17;;;;;;;27.67;32.16;96000.44;10378753;28;97069;-65
2022/08/01 17:52:54;;;;;;;3.55;1.38;;;;;;;27.55;32.13;96012.44;10380088;28;97106;-63
2022/08/01 17:57:56;;;;;;;1.60;1.20;;;;;;;27.61;32.22;96006.00;10378224;28;96832;-63
2022/08/01 18:02:59;;;;;;;3.47;1.50;;;;;;;27.64;31.78;96008.19;10374264;28;96913;-63
2022/08/01 18:08:06;;;;;;;2.25;1.30;;;;;;;27.70;31.79;95999.13;10380910;28;96692;-64
2022/08/01 18:13:09;;;;;;;1.95;1.48;;;;;;;27.58;32.21;96004.66;10374037;28;96795;-65
2022/08/01 18:18:15;;;;;;;2.15;1.33;;;;;;;27.62;32.33;96013.03;10372585;28;96948;-64
2022/08/01 18:23:20;;;;;;;1.25;1.15;;;;;;;27.74;32.10;96012.81;10367649;28;97983;-65
2022/08/01 18:28:25;;;;;;;3.08;1.73;;;;;;;27.57;32.53;96021.03;10378971;28;98645;-65
2022/08/01 18:33:35;;;;;;;3.15;1.45;;;;;;;27.38;32.76;96016.09;10374418;28;97069;-61
2022/08/01 18:38:40;;;;;;;3.53;1.43;;;;;;;27.47;32.29;96017.22;10367698;28;98489;-65
2022/08/01 18:43:47;;;;;;;2.05;1.10;;;;;;;27.48;31.72;96031.44;10367825;28;98727;-65
2022/08/01 18:48:50;;;;;;;1.83;1.13;;;;;;;27.30;32.45;96027.31;10370430;28;97857;-66
2022/08/01 18:53:56;;;;;;;1.27;1.10;;;;;;;27.08;32.54;96022.88;10375330;28;97053;-65
2022/08/01 18:58:59;;;;;;;1.30;1.05;;;;;;;26.96;32.96;96046.41;10372629;28;97111;-65
2022/08/01 19:04:02;;;;;;;4.38;1.50;;;;;;;26.74;33.39;96046.44;10369701;28;98692;-65
2022/08/01 19:09:06;;;;;;;1.93;1.30;;;;;;;26.65;33.38;96035.38;10375205;28;97099;-65
2022/08/01 19:14:10;;;;;;;1.48;1.23;;;;;;;26.58;33.45;96058.91;10376447;28;97216;-65
2022/08/01 19:19:13;;;;;;;1.67;1.40;;;;;;;26.52;33.66;96067.97;10376311;28;98633;-65
2022/08/01 19:24:30;;;;;;;1.83;1.20;;;;;;;26.47;33.44;96070.59;10378373;28;97120;-65
2022/08/01 19:29:35;;;;;;;1.83;1.30;;;;;;;26.46;33.50;96082.38;10376155;28;96902;-66
2022/08/01 19:34:49;;;;;;;3.78;1.25;;;;;;;26.46;33.68;96090.41;10376218;28;98824;-67
2022/08/01 19:39:53;;;;;;;;;;;;;;;26.47;33.21;96089.34;10377731;28;96783;-65
2022/08/01 19:44:57;;;;;;;1.98;1.38;;;;;;;26.42;33.66;96100.81;10377612;28;96816;-66
2022/08/01 19:50:00;;;;;;;1.88;1.40;;;;;;;26.29;33.94;96102.03;10377249;28;97560;-65
2022/08/01 19:55:07;;;;;;;1.57;1.23;;;;;;;26.16;34.38;96126.47;10377051;28;97276;-66
2022/08/01 20:00:12;;;;;;;3.05;1.50;;;;;;;26.13;34.42;96125.06;10375985;28;98043;-67
2022/08/01 20:05:30;;;;;;;3.13;1.40;;;;;;;26.07;34.04;96130.63;10375864;28;97752;-65
2022/08/01 20:10:36;;;;;;;5.72;1.50;;;;;;;26.03;34.44;96134.84;10375483;28;96948;-67
2022/08/01 20:15:39;;;;;;;2.92;1.30;;;;;;;25.97;34.76;96147.38;10374072;28;97061;-66
2022/08/01 20:20:43;;;;;;;2.53;1.15;;;;;;;25.85;34.91;96155.50;10375554;28;97060;-65
2022/08/01 20:25:51;;;;;;;2.55;1.48;;;;;;;25.66;35.24;96157.63;10376003;28;96840;-65
2022/08/01 20:30:57;;;;;;;3.90;1.85;;;;;;;25.55;35.19;96156.69;10367143;28;97866;-66
2022/08/01 20:36:07;;;;;;;2.05;1.20;;;;;;;25.35;36.50;96151.00;10372789;28;96949;-65
2022/08/01 20:41:28;;;;;;;2.58;1.70;;;;;;;25.23;36.16;96151.91;10374679;28;97073;-65
2022/08/01 20:46:31;;;;;;;2.70;1.70;;;;;;;25.16;36.23;96150.44;10369721;28;96935;-65
2022/08/01 20:51:35;;;;;;;2.75;1.52;;;;;;;25.02;36.52;96157.94;10379285;28;97350;-66
2022/08/01 20:56:56;;;;;;;2.58;1.63;;;;;;;24.94;36.40;96161.00;10389406;28;96758;-67
2022/08/01 21:02:08;;;;;;;2.05;1.50;;;;;;;24.94;37.35;96167.19;10382311;28;97581;-67
2022/08/01 21:07:21;;;;;;;2.35;1.77;;;;;;;24.60;37.54;96171.59;10380475;28;96932;-65
2022/08/01 21:12:28;;;;;;;;;;;;;;;24.48;37.40;96169.75;10379039;28;97909;-65
2022/08/01 21:17:39;;;;;;;2.30;1.60;;;;;;;24.40;37.39;96178.16;10379651;28;96812;-65
2022/08/01 21:22:53;;;;;;;2.80;1.60;;;;;;;24.36;37.70;96179.66;10374271;28;97005;-67
2022/08/01 21:28:00;;;;;;;4.57;2.10;;;;;;;24.25;38.89;96185.88;10371935;28;99265;-69
2022/08/01 21:33:04;;;;;;;2.63;1.85;;;;;;;24.11;38.83;96183.44;10375852;28;97284;-65
2022/08/01 21:38:09;;;;;;;4.72;1.98;;;;;;;23.96;39.51;96180.41;10379836;28;96975;-65
2022/08/01 21:43:14;;;;;;;2.20;1.70;;;;;;;23.85;39.80;96178.59;10379289;28;96801;-65
2022/08/01 21:48:17;;;;;;;2.70;1.80;;;;;;;23.67;40.31;96179.50;10380887;28;96798;-61
2022/08/01 21:53:35;;;;;;;2.33;1.83;;;;;;;23.58;39.84;96173.72;10386690;28;96800;-62
2022/08/01 21:58:56;;;;;;;11.93;9.75;;;;;;;23.50;39.93;96174.06;10380388;28;97385;-63
2022/08/01 22:04:01;;;;;;;3.30;2.10;;;;;;;23.28;41.18;96179.94;10377444;28;98824;-62
2022/08/01 22:09:06;;;;;;;2.45;1.63;;;;;;;23.10;41.84;96174.66;10380997;28;96946;-63
2022/08/01 22:14:15;;;;;;;5.47;2.72;;;;;;;23.02;41.68;96183.00;10379072;28;98150;-61
2022/08/01 22:19:19;;;;;;;2.67;1.90;;;;;;;22.80;42.46;96191.47;10379572;28;96768;-63
2022/08/01 22:24:42;;;;;;;3.42;1.83;;;;;;;22.52;42.95;96184.88;10371281;28;96862;-64
2022/08/01 22:29:46;;;;;;;2.58;1.63;;;;;;;22.38;43.40;96192.19;10371740;28;96725;-64
2022/08/01 22:34:49;;;;;;;3.00;1.70;;;;;;;22.36;43.44;96196.13;10371588;28;96877;-65
2022/08/01 22:39:52;;;;;;;3.63;1.67;;;;;;;22.33;43.09;96189.38;10368904;28;98532;-68
2022/08/01 22:45:04;;;;;;;2.60;1.63;;;;;;;22.31;43.55;96198.66;10370870;28;97916;-64
2022/08/01 22:50:08;;;;;;;2.13;1.70;;;;;;;22.24;43.18;96196.84;10367660;28;97634;-65
2022/08/01 22:55:11;;;;;;;2.90;1.77;;;;;;;22.16;43.59;96199.84;10374098;28;98631;-64
2022/08/01 23:00:16;;;;;;;2.00;1.77;;;;;;;22.17;43.63;96198.78;10376465;28;97052;-64
2022/08/01 23:05:21;;;;;;;2.05;1.60;;;;;;;22.05;44.45;96200.56;10376769;28;97178;-65
2022/08/01 23:10:25;;;;;;;3.28;1.60;;;;;;;21.94;44.79;96202.09;10366079;28;96817;-66
2022/08/01 23:15:31;;;;;;;2.38;1.80;;;;;;;21.72;45.56;96201.69;10375467;28;97720;-63
2022/08/01 23:20:34;;;;;;;2.70;1.88;;;;;;;21.63;45.08;96201.16;10367799;28;97163;-63
2022/08/01 23:25:38;;;;;;;4.25;2.25;;;;;;;21.43;46.28;96197.84;10379028;28;97185;-63
2022/08/01 23:30:43;;;;;;;;;;;;;;;21.33;45.67;96201.00;10375039;28;96901;-64
2022/08/01 23:35:46;;;;;;;2.20;1.60;;;;;;;21.08;46.49;96185.84;10372474;28;98663;-68
2022/08/01 23:40:49;;;;;;;2.78;1.92;;;;;;;21.04;46.76;96195.28;10370571;28;97769;-64
2022/08/01 23:45:53;;;;;;;2.37;1.60;;;;;;;20.89;47.20;96192.09;10367682;28;97070;-63
2022/08/01 23:51:07;;;;;;;3.07;1.73;;;;;;;20.78;47.33;96198.09;10368503;28;98434;-63
2022/08/01 23:56:13;;;;;;;2.28;1.70;;;;;;;20.78;48.09;96195.44;10369895;28;97648;-67
